• Join FlightAware (Why Join?)
  • Login
  • US Flag 
12:47AM EDT


 

Airport Tracker/Info


-or-


 

Live Flight TrackerFlight Track Log ✈ WBR2705 ✈ 31-Jul-2013 ✈ KSTL - KJBR

Flight Track Log - Related Links

Times and Time Zones

All times are in EDT time to prevent confusion due to time zone crossing. See the WBR2705 flight status page for this flight to view local times or setup timezone preferences in your user account.

Time Position Orientation Groundspeed Altitude Reporting Facility
EDT Latitude Longitude Course Direction KTS MPH feet Rate Location/Type
04:07PM 38.7500 -90.3833 237° Southwest 96 110 1,400  Level Gateway (St. Louis) TRACON
04:08PM 38.7333 -90.4167 237° Southwest 129 148 2,100 600 Climbing Gateway (St. Louis) TRACON
04:09PM 38.7150 -90.4161 179° South 124 143 2,500 660 Climbing Kansas City Center
04:10PM 38.6794 -90.4192 184° South 130 150 3,200 780 Climbing Kansas City Center
04:11PM 38.6364 -90.4217 183° South 132 152 4,100 720 Climbing Kansas City Center
04:12PM 38.6025 -90.4244 184° South 128 147 4,800 660 Climbing Kansas City Center
04:13PM 38.5672 -90.4297 187° South 126 145 5,500 540 Climbing Kansas City Center
04:14PM 38.5325 -90.4331 184° South 126 145 6,000 240 Climbing Kansas City Center
04:15PM 38.4928 -90.4375 185° South 136 157 6,100  Climbing Kansas City Center
04:16PM 38.4439 -90.4414 184° South 144 166 6,100  Level Kansas City Center
04:17PM 38.4022 -90.4450 184° South 148 170 6,100  Level Kansas City Center
04:18PM 38.3603 -90.4483 184° South 151 174 6,100  Level Kansas City Center
04:19PM 38.3186 -90.4517 184° South 150 173 6,100  Level Kansas City Center
04:20PM 38.2767 -90.4556 184° South 150 173 6,100  Level Kansas City Center
04:21PM 38.2350 -90.4589 184° South 150 173 6,100  Level Kansas City Center
04:22PM 38.1825 -90.4625 183° South 155 178 6,100 -60 Level Kansas City Center
04:23PM 38.1394 -90.4714 189° South 157 181 6,000  Descending Kansas City Center
04:24PM 38.1044 -90.5022 215° Southwest 153 176 6,100  Climbing Kansas City Center
04:25PM 38.0611 -90.5075 185° South 158 182 6,100  Level Kansas City Center
04:26PM 38.0172 -90.5108 183° South 158 182 6,100 -60 Level Kansas City Center
04:27PM 37.9733 -90.5139 183° South 157 181 6,000 -60 Descending Kansas City Center
04:28PM 37.9211 -90.5172 183° South 157 181 6,000  Level Kansas City Center
04:29PM 37.8783 -90.5206 184° South 154 177 6,000  Level Kansas City Center
04:30PM 37.8336 -90.5222 182° South 159 183 6,000  Level Kansas City Center
04:31PM 37.7906 -90.5256 184° South 156 180 6,000  Level Kansas City Center
04:33PM 37.7467 -90.5286 183° South 157 181 6,000  Level Kansas City Center
04:34PM 37.7039 -90.5306 182° South 156 180 6,100  Climbing Kansas City Center
04:35PM 37.6517 -90.5339 183° South 155 178 6,000 -60 Descending Kansas City Center
04:36PM 37.6078 -90.5364 183° South 156 180 6,000  Level Kansas City Center
04:37PM 37.5639 -90.5397 183° South 158 182 6,000  Level Kansas City Center
04:38PM 37.5203 -90.5433 184° South 157 181 6,000  Level Kansas City Center
04:39PM 37.4764 -90.5453 182° South 157 181 6,000  Level Kansas City Center
04:40PM 37.4339 -90.5483 183° South 154 177 6,000  Level Kansas City Center
04:41PM 37.3817 -90.5522 183° South 156 180 6,000  Level Kansas City Center
04:42PM 37.3367 -90.5531 181° South 155 178 6,100  Climbing Kansas City Center
04:43PM 37.2953 -90.5553 182° South 151 174 6,100  Level Kansas City Center
04:44PM 37.2511 -90.5583 183° South 156 180 6,100  Level Kansas City Center
04:45PM 37.2075 -90.5625 184° South 157 181 6,100  Level Kansas City Center
04:46PM 37.1642 -90.5650 183° South 157 181 6,100  Level Kansas City Center
04:47PM 37.1117 -90.5681 183° South 157 181 6,200  Climbing Kansas City Center
04:48PM 37.0681 -90.5711 183° South 157 181 6,200  Level Kansas City Center
04:49PM 37.0233 -90.5742 183° South 159 183 6,200  Level Kansas City Center
04:50PM 36.9794 -90.5767 183° South 159 183 6,200  Level Kansas City Center
04:51PM 36.9325 -90.5789 182° South 161 185 6,200  Level Kansas City Center
04:52PM 36.8875 -90.5811 182° South 162 186 6,200  Level Kansas City Center
04:53PM 36.8214 -90.5875 184° South 163 188 6,200  Level Memphis Center
04:54PM 36.7753 -90.5900 182° South 163 188 6,200 -60 Level Memphis Center
04:55PM 36.7275 -90.5925 182° South 168 193 6,100 -120 Descending Memphis Center
04:56PM 36.6836 -90.5975 185° South 168 193 6,000 -60 Descending Memphis Center
04:57PM 36.6378 -90.6000 183° South 163 188 6,000  Level Memphis Center
04:58PM 36.5961 -90.6000 180° South 163 188 6,000  Level Memphis Center
04:59PM 36.5503 -90.6050 185° South 158 182 6,000  Level Memphis Center
05:00PM 36.5086 -90.6075 183° South 158 182 6,000  Level Memphis Center
05:01PM 36.4628 -90.6097 182° South 163 188 6,000 -360 Level Memphis Center
05:02PM 36.4189 -90.6122 183° South 163 188 5,300 -720 Descending Memphis Center
05:03PM 36.3753 -90.6147 183° South 163 188 4,600 -720 Descending Memphis Center
05:04PM 36.3294 -90.6172 183° South 158 182 3,900 -780 Descending Memphis Center
05:05PM 36.2856 -90.6222 185° South 158 182 3,100 -480 Descending Memphis Center
05:06PM 36.2439 -90.6219 180° South 158 182 3,000 -60 Descending Memphis Center
05:07PM 36.2000 -90.6269 185° South 158 182 3,000  Level Memphis Center
05:08PM 36.1561 -90.6269 180° South 158 182 3,000  Level Memphis Center
05:09PM 36.1144 -90.6319 186° South 158 182 3,000 -60 Level Memphis Center
05:10PM 36.0686 -90.6317 180° South 158 182 2,900 -240 Descending Memphis Center
05:11PM 36.0250 -90.6367 185° South 163 188 2,600 -300 Descending Memphis Center
05:12PM 35.9831 -90.6392 183° South 158 182 2,300 -300 Descending Memphis Center
05:13PM 35.9394 -90.6417 183° South 158 182 2,000 -180 Descending Memphis Center
05:14PM 35.9061 -90.6467 187° South 158 182 2,000  Level Memphis Center